Time;durP1;ratioP1;P1;durP2;ratioP2;P2;SDS_P1;SDS_P2;PMS_P1;PMS_P2;Temp;Humidity;BMP_temperature;BMP_pressure;BME280_temperature;BME280_humidity;BME280_pressure;Samples;Min_cycle;Max_cycle;Signal;HPM_P1;HPM_P2
2023/01/10 00:02:31;;;;;;;0.40;0.40;;;15.40;65.20;;;;;;4869543;29;20037;-93
2023/01/10 00:08:10;;;;;;;0.30;0.30;;;15.80;64.00;;;;;;4884692;29;20040;-93
2023/01/10 00:14:00;;;;;;;0.30;0.30;;;15.40;64.60;;;;;;4903934;29;20051;-91
2023/01/10 00:16:44;;;;;;;0.40;0.40;;;15.60;64.10;;;;;;4887074;29;20021;-91
2023/01/10 00:19:15;;;;;;;0.20;0.20;;;15.50;64.40;;;;;;4890764;29;20013;-92
2023/01/10 00:21:56;;;;;;;0.30;0.30;;;15.70;64.00;;;;;;4890350;29;20015;-93
2023/01/10 00:25:01;;;;;;;;;;;;;;;;;;;;;
2023/01/10 00:28:00;;;;;;;0.30;0.30;;;15.40;64.80;;;;;;4898036;29;20069;-92
2023/01/10 00:30:38;;;;;;;0.35;0.35;;;15.60;64.40;;;;;;4888730;29;20046;-94
2023/01/10 00:33:52;;;;;;;0.30;0.30;;;15.70;64.60;;;;;;4888470;29;20394;-92
2023/01/10 00:39:38;;;;;;;0.40;0.40;;;15.70;64.20;;;;;;5116654;23;20037;-94
2023/01/10 00:45:20;;;;;;;0.30;0.30;;;15.80;63.50;;;;;;4907316;29;20046;-93
2023/01/10 00:48:12;;;;;;;0.28;0.28;;;15.20;65.30;;;;;;4891067;29;20105;-92
2023/01/10 00:50:58;;;;;;;0.30;0.30;;;14.90;66.30;;;;;;4890566;29;20028;-92
2023/01/10 00:53:48;;;;;;;0.30;0.30;;;15.20;65.30;;;;;;4906922;29;20021;-93
2023/01/10 00:56:42;;;;;;;;;;;;;;;;;;;;;
2023/01/10 00:59:40;;;;;;;0.30;0.30;;;15.40;64.70;;;;;;4899226;29;19931;-95
2023/01/10 01:02:29;;;;;;;0.30;0.30;;;15.40;64.00;;;;;;4893921;29;20037;-94
2023/01/10 01:04:58;;;;;;;0.30;0.30;;;15.50;64.80;;;;;;4879798;29;20084;-94
2023/01/10 01:07:28;;;;;;;0.20;0.20;;;15.50;64.00;;;;;;4893517;29;20025;-94
2023/01/10 01:12:38;;;;;;;0.30;0.30;;;15.50;64.20;;;;;;4905145;29;19960;-96
2023/01/10 01:15:05;;;;;;;0.30;0.30;;;15.50;64.70;;;;;;4903883;29;20045;-96
2023/01/10 01:20:47;;;;;;;0.30;0.30;;;15.70;64.00;;;;;;4905274;23;20057;-90
2023/01/10 01:23:50;;;;;;;0.30;0.30;;;15.30;65.10;;;;;;4886345;29;20037;-92
2023/01/10 01:26:50;;;;;;;0.20;0.20;;;15.20;65.40;;;;;;4904612;29;20033;-90
2023/01/10 01:29:16;;;;;;;0.38;0.38;;;15.20;65.10;;;;;;4887272;29;20037;-94
2023/01/10 01:32:02;;;;;;;0.40;0.40;;;15.30;64.70;;;;;;4889242;29;20042;-91
2023/01/10 01:34:35;;;;;;;0.30;0.30;;;15.40;65.10;;;;;;4905446;29;20021;-93
2023/01/10 01:38:07;;;;;;;0.40;0.40;;;15.50;64.40;;;;;;4905446;29;20476;-91
2023/01/10 01:40:35;;;;;;;0.20;0.20;;;15.40;64.10;;;;;;4888135;29;20021;-94
2023/01/10 01:43:24;;;;;;;0.20;0.20;;;15.40;64.50;;;;;;4889048;29;20041;-91
2023/01/10 01:46:12;;;;;;;0.30;0.30;;;15.50;64.60;;;;;;4903297;29;20072;-92
2023/01/10 01:49:36;;;;;;;0.20;0.20;;;15.70;64.30;;;;;;4905080;29;20038;-92
2023/01/10 01:52:36;;;;;;;0.22;0.22;;;15.80;63.60;;;;;;4866681;29;20051;-94
2023/01/10 01:55:40;;;;;;;0.30;0.30;;;15.80;63.80;;;;;;4866577;29;20097;-95
2023/01/10 01:58:20;;;;;;;0.40;0.40;;;15.90;63.60;;;;;;5012265;23;20778;-92
2023/01/10 02:01:10;;;;;;;0.30;0.30;;;15.90;63.40;;;;;;4887930;29;20057;-95
2023/01/10 02:03:51;;;;;;;0.30;0.30;;;16.10;62.90;;;;;;4886016;29;20033;-93
2023/01/10 02:06:24;;;;;;;0.20;0.20;;;16.10;62.80;;;;;;4885126;29;20028;-96
2023/01/10 02:09:04;;;;;;;0.40;0.40;;;16.10;62.90;;;;;;4896413;29;20093;-96
2023/01/10 02:11:30;;;;;;;0.38;0.38;;;16.00;62.80;;;;;;4872313;29;20044;-95
2023/01/10 02:13:58;;;;;;;0.25;0.25;;;16.00;62.70;;;;;;4879141;29;20035;-96
2023/01/10 02:16:26;;;;;;;0.20;0.20;;;15.60;64.30;;;;;;4877921;29;20025;-96
2023/01/10 02:19:07;;;;;;;0.15;0.15;;;15.60;63.90;;;;;;4886128;29;20021;-93
2023/01/10 02:22:29;;;;;;;0.30;0.30;;;15.40;64.20;;;;;;4904419;29;20029;-94
2023/01/10 02:25:47;;;;;;;;;;;;;;;;;;;;;
2023/01/10 02:28:31;;;;;;;0.30;0.30;;;14.60;65.60;;;;;;4896758;29;20048;-95
2023/01/10 02:31:38;;;;;;;0.30;0.30;;;14.50;67.30;;;;;;4878585;29;20540;-92
2023/01/10 02:38:14;;;;;;;0.40;0.40;;;14.40;67.10;;;;;;4896449;29;20120;-93
2023/01/10 02:41:02;;;;;;;0.28;0.28;;;14.40;67.60;;;;;;4888200;29;20060;-92
2023/01/10 02:44:09;;;;;;;0.40;0.40;;;14.80;66.70;;;;;;4888261;29;20021;-91
2023/01/10 02:46:59;;;;;;;0.20;0.20;;;15.10;65.60;;;;;;4887739;29;20037;-91
2023/01/10 02:50:40;;;;;;;0.30;0.30;;;14.90;66.50;;;;;;4893841;29;20046;-93
2023/01/10 02:53:48;;;;;;;0.30;0.30;;;14.90;66.80;;;;;;4884362;29;20017;-91
2023/01/10 02:57:05;;;;;;;0.30;0.30;;;15.00;66.10;;;;;;4880203;29;20037;-95
2023/01/10 02:59:52;;;;;;;0.20;0.20;;;15.20;65.20;;;;;;4888542;29;20105;-92
2023/01/10 03:02:42;;;;;;;0.28;0.28;;;15.20;65.80;;;;;;4884155;29;20037;-96
2023/01/10 03:05:23;;;;;;;0.30;0.30;;;15.00;65.70;;;;;;4877041;29;20021;-93
2023/01/10 03:08:10;;;;;;;0.20;0.20;;;14.60;67.00;;;;;;4868316;29;20037;-96
2023/01/10 03:10:40;;;;;;;0.20;0.20;;;14.50;67.40;;;;;;4881097;29;20044;-96
2023/01/10 03:13:37;;;;;;;0.20;0.20;;;14.50;67.40;;;;;;4861321;29;20053;-96
2023/01/10 03:16:34;;;;;;;0.40;0.40;;;14.40;67.40;;;;;;4880683;29;20026;-91
2023/01/10 03:19:48;;;;;;;0.30;0.30;;;14.00;68.90;;;;;;4890977;29;20021;-95
2023/01/10 03:22:56;;;;;;;0.30;0.30;;;14.60;67.90;;;;;;4868431;29;20033;-94
2023/01/10 03:28:58;;;;;;;0.38;0.38;;;15.10;65.90;;;;;;4904633;29;20039;-96
2023/01/10 03:32:06;;;;;;;0.20;0.20;;;14.80;67.70;;;;;;4897405;29;20029;-96
2023/01/10 03:34:33;;;;;;;0.38;0.38;;;14.90;67.00;;;;;;4881207;29;20029;-96
2023/01/10 03:37:04;;;;;;;0.32;0.32;;;15.20;66.90;;;;;;4874914;29;20515;-96
2023/01/10 03:39:52;;;;;;;0.32;0.32;;;15.40;65.50;;;;;;4875664;29;20053;-96
2023/01/10 03:42:18;;;;;;;0.32;0.32;;;15.50;65.10;;;;;;4881487;29;20017;-92
2023/01/10 03:45:09;;;;;;;0.17;0.17;;;15.30;65.90;;;;;;4885784;29;20039;-91
2023/01/10 03:48:01;;;;;;;0.40;0.40;;;15.40;65.20;;;;;;4881934;29;20036;-95
2023/01/10 03:51:13;;;;;;;0.30;0.30;;;15.00;66.70;;;;;;4886789;29;20037;-93
2023/01/10 03:54:14;;;;;;;0.23;0.23;;;15.20;66.30;;;;;;4901668;29;20041;-95
2023/01/10 03:56:58;;;;;;;0.40;0.40;;;15.50;64.40;;;;;;4902432;29;20264;-95
2023/01/10 03:59:26;;;;;;;0.20;0.20;;;14.60;67.50;;;;;;4870792;29;20049;-95
2023/01/10 04:01:53;;;;;;;0.20;0.20;;;14.60;67.10;;;;;;4891139;29;20027;-95
2023/01/10 04:04:19;;;;;;;0.30;0.30;;;14.80;67.00;;;;;;4878933;29;20048;-94
2023/01/10 04:07:10;;;;;;;0.30;0.30;;;14.80;66.60;;;;;;4880615;29;20017;-92
2023/01/10 04:09:36;;;;;;;0.38;0.38;;;15.10;65.90;;;;;;4875947;29;20033;-96
2023/01/10 04:12:53;;;;;;;0.30;0.30;;;15.30;65.20;;;;;;4879894;29;20033;-96
2023/01/10 04:15:21;;;;;;;0.28;0.28;;;15.00;66.20;;;;;;4899092;29;20009;-96
2023/01/10 04:17:49;;;;;;;0.32;0.32;;;15.10;66.60;;;;;;4900734;29;20013;-95
2023/01/10 04:20:18;;;;;;;0.30;0.30;;;15.00;66.90;;;;;;4898641;29;20128;-96
2023/01/10 04:22:45;;;;;;;0.25;0.25;;;15.20;65.80;;;;;;4892578;29;20049;-95
2023/01/10 04:25:25;;;;;;;0.20;0.20;;;15.00;66.30;;;;;;4888320;29;20030;-92
2023/01/10 04:28:01;;;;;;;0.25;0.25;;;15.10;65.60;;;;;;4902660;29;20021;-91
2023/01/10 04:30:55;;;;;;;0.25;0.25;;;15.30;66.40;;;;;;4885957;29;20030;-90
2023/01/10 04:33:24;;;;;;;0.22;0.22;;;15.30;66.10;;;;;;4883596;29;20010;-92
2023/01/10 04:36:07;;;;;;;0.28;0.28;;;15.40;65.60;;;;;;4896503;29;20089;-95
2023/01/10 04:38:33;;;;;;;0.30;0.30;;;15.10;66.00;;;;;;4884691;29;20033;-95
2023/01/10 04:40:59;;;;;;;0.28;0.28;;;15.20;66.50;;;;;;4884918;29;20045;-95
2023/01/10 04:43:26;;;;;;;0.20;0.20;;;15.10;65.50;;;;;;4885885;29;20096;-94
2023/01/10 04:45:51;;;;;;;0.20;0.20;;;14.90;66.90;;;;;;4886185;29;20404;-95
2023/01/10 04:48:18;;;;;;;0.40;0.40;;;15.10;66.20;;;;;;4876681;29;20039;-95
2023/01/10 04:50:49;;;;;;;0.30;0.30;;;15.00;66.90;;;;;;4884051;29;20044;-96
2023/01/10 04:53:15;;;;;;;0.22;0.22;;;14.90;67.10;;;;;;4884573;29;20029;-94
2023/01/10 04:55:41;;;;;;;0.30;0.30;;;14.90;66.80;;;;;;4874319;29;20060;-95
2023/01/10 04:58:06;;;;;;;0.20;0.20;;;14.70;67.40;;;;;;4883885;29;20120;-91
2023/01/10 05:00:32;;;;;;;0.40;0.40;;;14.40;67.90;;;;;;4865155;29;20045;-96
2023/01/10 05:02:58;;;;;;;0.30;0.30;;;13.90;69.90;;;;;;4888145;29;20061;-94
2023/01/10 05:05:25;;;;;;;0.30;0.30;;;14.10;69.30;;;;;;4880715;29;20033;-93
2023/01/10 05:07:58;;;;;;;0.30;0.30;;;14.40;67.90;;;;;;4899652;29;20085;-93
2023/01/10 05:10:24;;;;;;;0.20;0.20;;;14.40;68.60;;;;;;4885634;29;20045;-94
2023/01/10 05:12:58;;;;;;;0.40;0.40;;;14.30;68.10;;;;;;4905554;29;20009;-92
2023/01/10 05:15:27;;;;;;;0.15;0.15;;;14.40;68.40;;;;;;4898171;29;20085;-94
2023/01/10 05:17:59;;;;;;;0.38;0.38;;;14.80;67.50;;;;;;4893713;29;20025;-96
2023/01/10 05:20:25;;;;;;;0.30;0.30;;;15.10;66.80;;;;;;4904939;29;20056;-94
2023/01/10 05:22:58;;;;;;;0.30;0.30;;;15.50;65.10;;;;;;4904059;29;20032;-92
2023/01/10 05:25:24;;;;;;;0.30;0.30;;;15.40;65.50;;;;;;4847954;29;20041;-94
2023/01/10 05:27:49;;;;;;;0.38;0.38;;;15.30;64.50;;;;;;4878946;29;20033;-92
2023/01/10 05:30:18;;;;;;;0.30;0.30;;;15.40;63.60;;;;;;4874755;29;20061;-96
2023/01/10 05:32:47;;;;;;;0.30;0.30;;;15.20;64.10;;;;;;4901419;29;20013;-94
2023/01/10 05:35:12;;;;;;;0.20;0.20;;;15.20;64.30;;;;;;4864961;29;20052;-92
2023/01/10 05:37:40;;;;;;;0.30;0.30;;;14.90;64.50;;;;;;4884606;29;20033;-94
2023/01/10 05:40:10;;;;;;;0.25;0.25;;;15.00;64.70;;;;;;4884084;29;20116;-95
2023/01/10 05:42:36;;;;;;;0.20;0.20;;;15.20;64.40;;;;;;4898617;29;20014;-94
2023/01/10 05:45:18;;;;;;;0.30;0.30;;;14.80;64.30;;;;;;4898991;29;20033;-90
2023/01/10 05:47:44;;;;;;;0.20;0.20;;;14.70;65.70;;;;;;4900873;29;20020;-95
2023/01/10 05:50:10;;;;;;;0.30;0.30;;;14.70;65.50;;;;;;4895796;29;20044;-94
2023/01/10 05:52:36;;;;;;;0.20;0.20;;;14.90;64.60;;;;;;4885924;29;20025;-96
2023/01/10 05:55:04;;;;;;;0.20;0.20;;;15.20;63.90;;;;;;4892200;29;20504;-89
2023/01/10 05:57:30;;;;;;;0.20;0.20;;;15.20;63.50;;;;;;4872878;29;20056;-91
2023/01/10 05:59:56;;;;;;;0.30;0.30;;;15.00;63.90;;;;;;4887802;29;20049;-93
2023/01/10 06:02:25;;;;;;;0.30;0.30;;;15.00;64.10;;;;;;4892730;29;20100;-94
2023/01/10 06:04:51;;;;;;;0.30;0.30;;;15.00;64.20;;;;;;4874673;29;20064;-95
2023/01/10 06:07:16;;;;;;;0.22;0.22;;;14.90;63.50;;;;;;4886858;29;20006;-95
2023/01/10 06:09:42;;;;;;;0.30;0.30;;;15.00;63.70;;;;;;4871105;29;20449;-95
2023/01/10 06:12:08;;;;;;;0.30;0.30;;;15.00;63.90;;;;;;4878202;29;20061;-90
2023/01/10 06:14:34;;;;;;;0.20;0.20;;;14.80;64.60;;;;;;4874169;29;20099;-92
2023/01/10 06:17:00;;;;;;;0.35;0.35;;;14.80;64.10;;;;;;4880510;29;20081;-96
2023/01/10 06:19:25;;;;;;;0.30;0.30;;;14.80;63.90;;;;;;4884611;29;20090;-93
2023/01/10 06:22:01;;;;;;;0.20;0.20;;;14.80;64.40;;;;;;4877895;29;20019;-90
2023/01/10 06:24:27;;;;;;;0.40;0.40;;;14.90;64.60;;;;;;4885251;29;20026;-95
2023/01/10 06:27:00;;;;;;;0.30;0.30;;;14.90;63.90;;;;;;4877262;29;20032;-93
2023/01/10 06:29:26;;;;;;;0.20;0.20;;;14.90;64.30;;;;;;4875005;29;20051;-96
2023/01/10 06:31:52;;;;;;;0.30;0.30;;;14.90;63.90;;;;;;4872113;29;20033;-96
2023/01/10 06:34:17;;;;;;;0.30;0.30;;;14.50;64.80;;;;;;4869607;29;20029;-96
2023/01/10 06:36:52;;;;;;;0.28;0.28;;;14.40;65.80;;;;;;4867427;29;20036;-89
2023/01/10 06:39:54;;;;;;;0.20;0.20;;;14.60;64.70;;;;;;4899297;29;20013;-91
2023/01/10 06:42:21;;;;;;;0.38;0.38;;;14.80;64.60;;;;;;4889016;29;20021;-95
2023/01/10 06:44:47;;;;;;;0.30;0.30;;;14.80;64.60;;;;;;4878052;29;20040;-91
2023/01/10 06:47:13;;;;;;;0.20;0.20;;;14.80;64.30;;;;;;4871683;29;20040;-96
2023/01/10 06:49:39;;;;;;;0.22;0.22;;;14.50;63.90;;;;;;4880865;29;20034;-96
2023/01/10 06:52:05;;;;;;;0.30;0.30;;;14.40;65.20;;;;;;4879972;29;20045;-93
2023/01/10 06:54:35;;;;;;;0.30;0.30;;;14.50;64.50;;;;;;4882734;29;20029;-94
2023/01/10 06:57:01;;;;;;;0.20;0.20;;;14.40;64.90;;;;;;4894694;29;20068;-93
2023/01/10 06:59:59;;;;;;;0.30;0.30;;;14.50;64.90;;;;;;4877254;29;20517;-94
2023/01/10 07:02:27;;;;;;;0.30;0.30;;;14.30;64.70;;;;;;4882633;29;20043;-95
2023/01/10 07:04:54;;;;;;;0.20;0.20;;;13.90;65.70;;;;;;4887442;29;20076;-96
2023/01/10 07:07:20;;;;;;;0.20;0.20;;;14.10;65.50;;;;;;4890808;29;20464;-92
2023/01/10 07:09:50;;;;;;;0.30;0.30;;;14.10;65.30;;;;;;4895790;29;20095;-96
2023/01/10 07:12:16;;;;;;;0.20;0.20;;;14.20;65.00;;;;;;4891123;29;20039;-95
2023/01/10 07:14:42;;;;;;;0.30;0.30;;;14.50;64.30;;;;;;4876431;29;20136;-95
2023/01/10 07:17:08;;;;;;;0.20;0.20;;;14.30;64.30;;;;;;4869155;29;20064;-95
2023/01/10 07:19:34;;;;;;;0.20;0.20;;;13.50;66.10;;;;;;4884534;29;20021;-94
2023/01/10 07:22:02;;;;;;;0.20;0.20;;;13.60;67.00;;;;;;4882850;29;20021;-92
2023/01/10 07:24:28;;;;;;;0.30;0.30;;;14.10;65.50;;;;;;4878186;29;20029;-94
2023/01/10 07:26:55;;;;;;;0.22;0.22;;;14.50;63.90;;;;;;4878777;29;20120;-96
2023/01/10 07:29:20;;;;;;;0.30;0.30;;;14.50;64.20;;;;;;4878902;29;20025;-96
2023/01/10 07:31:46;;;;;;;0.30;0.30;;;14.50;64.30;;;;;;4878846;29;20025;-93
2023/01/10 07:34:19;;;;;;;0.30;0.30;;;14.60;64.00;;;;;;4897034;29;20009;-96
2023/01/10 07:36:58;;;;;;;0.30;0.30;;;14.70;63.50;;;;;;4886567;29;20033;-93
2023/01/10 07:39:25;;;;;;;0.30;0.30;;;14.70;63.50;;;;;;4880161;29;20037;-94
2023/01/10 07:41:52;;;;;;;0.30;0.30;;;14.70;62.90;;;;;;4869381;29;20029;-93
2023/01/10 07:44:22;;;;;;;0.20;0.20;;;14.50;63.40;;;;;;4869749;29;20040;-93
2023/01/10 07:46:48;;;;;;;0.13;0.13;;;14.40;64.00;;;;;;4884451;29;20013;-93
2023/01/10 07:49:14;;;;;;;0.30;0.30;;;14.30;64.70;;;;;;4870630;29;20032;-89
2023/01/10 07:51:40;;;;;;;0.30;0.30;;;14.40;64.10;;;;;;4866408;29;20036;-91
2023/01/10 07:54:05;;;;;;;0.30;0.30;;;14.50;63.20;;;;;;4865494;29;20036;-93
2023/01/10 07:56:31;;;;;;;0.20;0.20;;;14.30;64.10;;;;;;4865703;29;20036;-92
2023/01/10 07:58:57;;;;;;;0.20;0.20;;;14.30;64.20;;;;;;4866811;29;20503;-96
2023/01/10 08:01:26;;;;;;;0.20;0.20;;;14.60;63.90;;;;;;4863748;29;20041;-86
2023/01/10 08:03:51;;;;;;;0.30;0.30;;;14.40;63.40;;;;;;4863791;29;20346;-93
2023/01/10 08:06:17;;;;;;;0.20;0.20;;;14.20;63.70;;;;;;4863172;29;20507;-93
2023/01/10 08:08:43;;;;;;;0.25;0.25;;;14.30;63.90;;;;;;4864441;29;20029;-92
2023/01/10 08:11:08;;;;;;;0.20;0.20;;;14.30;63.50;;;;;;4873258;29;20435;-90
2023/01/10 08:13:34;;;;;;;0.40;0.40;;;14.30;64.50;;;;;;4862509;29;20033;-91
2023/01/10 08:16:04;;;;;;;0.32;0.32;;;14.10;63.80;;;;;;4865380;29;20025;-96
2023/01/10 08:18:30;;;;;;;0.32;0.32;;;13.80;64.70;;;;;;4869378;29;20030;-96
2023/01/10 08:20:56;;;;;;;0.40;0.40;;;13.60;64.80;;;;;;4871039;29;20052;-89
2023/01/10 08:23:22;;;;;;;0.28;0.28;;;13.60;64.50;;;;;;4873229;29;20025;-93
2023/01/10 08:25:50;;;;;;;0.20;0.20;;;13.80;64.60;;;;;;4869149;29;20039;-87
2023/01/10 08:28:16;;;;;;;0.40;0.40;;;13.70;64.20;;;;;;4871025;29;20030;-91
2023/01/10 08:30:42;;;;;;;0.30;0.30;;;13.10;65.80;;;;;;4865827;29;20089;-92
2023/01/10 08:33:09;;;;;;;0.32;0.32;;;12.70;65.80;;;;;;4878407;29;20029;-91
2023/01/10 08:35:42;;;;;;;0.30;0.30;;;12.80;67.00;;;;;;4871396;29;20108;-96
2023/01/10 08:38:09;;;;;;;0.17;0.17;;;13.00;67.20;;;;;;4866032;29;20117;-94
2023/01/10 08:40:35;;;;;;;0.20;0.20;;;13.50;65.10;;;;;;4868575;29;20029;-92
2023/01/10 08:43:06;;;;;;;0.20;0.20;;;13.70;64.40;;;;;;4871141;29;20040;-91
2023/01/10 08:45:32;;;;;;;0.38;0.38;;;13.80;63.60;;;;;;4866508;29;20037;-94
2023/01/10 08:47:58;;;;;;;0.28;0.28;;;13.90;64.60;;;;;;4861461;29;20029;-92
2023/01/10 08:50:24;;;;;;;0.22;0.22;;;13.90;64.90;;;;;;4869309;29;20036;-95
2023/01/10 08:52:51;;;;;;;0.25;0.25;;;13.90;63.90;;;;;;4889142;29;20033;-91
2023/01/10 08:55:18;;;;;;;0.20;0.20;;;13.20;64.40;;;;;;4902621;29;20410;-95
2023/01/10 08:57:44;;;;;;;0.20;0.20;;;13.40;65.20;;;;;;4900488;29;20061;-92
2023/01/10 09:00:13;;;;;;;0.35;0.35;;;13.70;64.10;;;;;;4889176;29;20057;-95
2023/01/10 09:02:40;;;;;;;0.30;0.30;;;13.20;65.50;;;;;;4891352;29;20021;-96
2023/01/10 09:05:06;;;;;;;0.40;0.40;;;12.60;66.30;;;;;;4890207;29;20045;-88
2023/01/10 09:07:32;;;;;;;0.30;0.30;;;12.80;66.30;;;;;;4891097;29;20029;-96
2023/01/10 09:09:57;;;;;;;0.35;0.35;;;12.60;66.60;;;;;;4897965;29;20040;-96
2023/01/10 09:15:08;;;;;;;0.35;0.35;;;12.60;66.10;;;;;;4881022;29;20109;-95
2023/01/10 09:17:34;;;;;;;0.40;0.40;;;12.80;65.90;;;;;;4889030;29;20034;-94
2023/01/10 09:20:04;;;;;;;0.38;0.38;;;12.60;65.20;;;;;;4889357;29;20037;-95
2023/01/10 09:22:36;;;;;;;0.40;0.40;;;12.20;66.10;;;;;;4876801;29;20032;-95
2023/01/10 09:25:11;;;;;;;0.20;0.20;;;12.40;67.50;;;;;;4889954;29;20010;-95
2023/01/10 09:27:41;;;;;;;0.28;0.28;;;12.60;66.30;;;;;;4865036;29;20029;-96
2023/01/10 09:30:07;;;;;;;0.20;0.20;;;12.80;66.30;;;;;;4893457;29;20037;-95
2023/01/10 09:32:33;;;;;;;0.40;0.40;;;13.00;65.10;;;;;;4884676;29;20030;-95
2023/01/10 09:34:59;;;;;;;0.30;0.30;;;12.30;64.80;;;;;;4872249;29;20034;-92
2023/01/10 09:37:24;;;;;;;0.32;0.32;;;12.60;66.30;;;;;;4893126;29;20029;-94
2023/01/10 09:39:54;;;;;;;0.35;0.35;;;13.00;65.00;;;;;;4891183;29;20029;-95
2023/01/10 09:42:42;;;;;;;0.30;0.30;;;13.20;65.30;;;;;;4893444;29;20026;-96
2023/01/10 09:45:54;;;;;;;0.30;0.30;;;13.60;64.10;;;;;;4876361;29;20072;-92
2023/01/10 09:48:34;;;;;;;0.20;0.20;;;14.00;63.10;;;;;;4871260;29;20541;-95
2023/01/10 09:51:23;;;;;;;0.30;0.30;;;13.30;63.80;;;;;;4867488;29;20521;-94
2023/01/10 09:53:55;;;;;;;0.30;0.30;;;13.10;64.50;;;;;;4858014;29;20090;-95
2023/01/10 09:56:22;;;;;;;0.20;0.20;;;13.30;64.80;;;;;;4874104;29;20032;-94
2023/01/10 09:58:48;;;;;;;0.25;0.25;;;13.30;64.30;;;;;;4871232;29;20042;-91
2023/01/10 10:01:42;;;;;;;0.20;0.20;;;13.50;64.40;;;;;;4872008;29;20053;-93
2023/01/10 10:04:29;;;;;;;0.40;0.40;;;13.60;63.50;;;;;;4868891;29;20025;-93
2023/01/10 10:06:55;;;;;;;0.30;0.30;;;13.50;62.60;;;;;;4869867;29;20033;-94
2023/01/10 10:09:39;;;;;;;0.32;0.32;;;13.30;64.70;;;;;;4870831;29;20849;-93
2023/01/10 10:12:45;;;;;;;0.30;0.30;;;13.30;64.70;;;;;;4866005;29;20165;-94
2023/01/10 10:15:56;;;;;;;0.30;0.30;;;13.20;64.60;;;;;;4834653;29;20039;-92
2023/01/10 10:18:21;;;;;;;0.35;0.35;;;13.70;63.60;;;;;;4817458;29;20210;-95
2023/01/10 10:20:49;;;;;;;0.32;0.32;;;13.80;63.60;;;;;;4817319;29;20081;-96
2023/01/10 10:23:29;;;;;;;0.45;0.45;;;13.70;64.10;;;;;;4811318;29;20530;-92
2023/01/10 10:26:03;;;;;;;0.20;0.20;;;13.80;63.70;;;;;;4809291;29;20039;-94
2023/01/10 10:28:50;;;;;;;0.35;0.35;;;13.90;63.60;;;;;;4810734;29;20557;-93
2023/01/10 10:31:29;;;;;;;0.30;0.30;;;13.80;63.50;;;;;;4812643;29;20039;-95
2023/01/10 10:34:30;;;;;;;0.30;0.30;;;13.90;63.80;;;;;;4811613;29;20046;-96
2023/01/10 10:37:04;;;;;;;0.30;0.30;;;14.10;62.50;;;;;;4795456;29;20059;-96
2023/01/10 10:40:06;;;;;;;0.28;0.28;;;13.70;62.90;;;;;;4814277;29;20066;-96
2023/01/10 10:42:48;;;;;;;0.30;0.30;;;13.30;63.20;;;;;;4790652;29;20408;-89
2023/01/10 10:45:27;;;;;;;0.22;0.22;;;13.30;64.60;;;;;;4819091;29;20069;-89
2023/01/10 10:48:00;;;;;;;0.30;0.30;;;13.60;64.30;;;;;;4876695;29;20485;-89
2023/01/10 10:50:58;;;;;;;0.30;0.30;;;13.00;62.90;;;;;;4876385;29;20045;-88
2023/01/10 10:53:23;;;;;;;0.30;0.30;;;13.10;64.40;;;;;;4862416;29;20062;-88
2023/01/10 10:55:49;;;;;;;0.20;0.20;;;13.20;64.20;;;;;;4877479;29;20112;-91
2023/01/10 10:58:16;;;;;;;0.20;0.20;;;13.10;64.10;;;;;;4879659;29;20022;-96
2023/01/10 11:00:42;;;;;;;0.40;0.40;;;13.10;65.60;;;;;;4882478;29;20029;-96
2023/01/10 11:03:11;;;;;;;0.20;0.20;;;13.40;64.80;;;;;;4884048;29;20496;-96
2023/01/10 11:05:40;;;;;;;0.20;0.20;;;13.70;63.40;;;;;;4866015;29;20044;-95
2023/01/10 11:08:12;;;;;;;0.20;0.20;;;13.90;64.10;;;;;;4881634;29;20032;-96
2023/01/10 11:10:39;;;;;;;0.40;0.40;;;13.90;63.50;;;;;;4881854;29;20489;-95
2023/01/10 11:13:30;;;;;;;0.35;0.35;;;13.70;63.30;;;;;;4883951;29;20076;-96
2023/01/10 11:15:56;;;;;;;0.50;0.50;;;13.60;63.80;;;;;;4868417;29;20036;-94
2023/01/10 11:18:25;;;;;;;0.30;0.30;;;13.60;64.00;;;;;;4883260;29;20033;-96
2023/01/10 11:20:56;;;;;;;0.40;0.40;;;13.40;64.70;;;;;;4883317;29;20029;-92
2023/01/10 11:23:39;;;;;;;0.20;0.20;;;13.40;63.90;;;;;;4883359;29;20036;-91
2023/01/10 11:26:08;;;;;;;0.40;0.40;;;13.40;65.50;;;;;;4883453;29;20040;-96
2023/01/10 11:28:36;;;;;;;0.27;0.27;;;13.80;65.10;;;;;;4884427;29;20133;-94
2023/01/10 11:31:03;;;;;;;0.20;0.20;;;13.90;64.00;;;;;;4882682;29;20049;-93
2023/01/10 11:33:34;;;;;;;0.40;0.40;;;13.90;63.60;;;;;;4883441;29;20409;-96
2023/01/10 11:36:11;;;;;;;0.25;0.25;;;13.80;62.70;;;;;;4882975;29;20085;-92
2023/01/10 11:38:37;;;;;;;0.30;0.30;;;13.80;63.20;;;;;;4880412;29;20051;-96
2023/01/10 11:41:06;;;;;;;0.35;0.35;;;13.90;63.80;;;;;;4880982;29;20029;-96
2023/01/10 11:43:40;;;;;;;0.40;0.40;;;13.90;62.90;;;;;;4880026;29;20028;-95
2023/01/10 11:46:16;;;;;;;0.40;0.40;;;14.00;63.60;;;;;;4880464;29;20068;-96
2023/01/10 11:48:48;;;;;;;0.40;0.40;;;14.30;62.50;;;;;;4879953;29;20029;-93
2023/01/10 11:51:25;;;;;;;0.30;0.30;;;14.10;62.90;;;;;;4881024;29;20037;-92
2023/01/10 11:54:01;;;;;;;0.30;0.30;;;13.80;62.80;;;;;;4881098;29;20053;-96
2023/01/10 11:56:33;;;;;;;0.20;0.20;;;13.50;63.80;;;;;;4880531;29;20049;-95
2023/01/10 11:59:08;;;;;;;0.40;0.40;;;13.50;64.70;;;;;;4879214;29;20055;-95
2023/01/10 12:02:03;;;;;;;0.30;0.30;;;13.80;63.90;;;;;;4879503;29;20471;-94
2023/01/10 12:04:33;;;;;;;0.30;0.30;;;13.90;62.90;;;;;;4879395;29;20044;-93
2023/01/10 12:07:06;;;;;;;0.30;0.30;;;14.20;63.40;;;;;;4865623;29;20124;-91
2023/01/10 12:09:41;;;;;;;0.40;0.40;;;13.80;63.00;;;;;;4879320;29;20037;-95
2023/01/10 12:12:34;;;;;;;0.30;0.30;;;13.60;64.50;;;;;;4879804;29;20039;-93
2023/01/10 12:15:22;;;;;;;0.30;0.30;;;13.90;63.60;;;;;;4883460;29;20037;-93
2023/01/10 12:17:48;;;;;;;0.20;0.20;;;13.80;63.40;;;;;;4871461;29;20026;-94
2023/01/10 12:20:15;;;;;;;0.20;0.20;;;13.60;64.40;;;;;;4886389;29;20104;-93
2023/01/10 12:22:44;;;;;;;0.35;0.35;;;13.60;64.60;;;;;;4888581;29;20027;-94
2023/01/10 12:25:23;;;;;;;0.45;0.45;;;13.70;64.00;;;;;;4888722;29;20029;-95
2023/01/10 12:44:45;;;;;;;0.30;0.30;;;13.90;64.10;;;;;;4827283;29;20050;-95
2023/01/10 12:47:49;;;;;;;0.30;0.30;;;14.20;63.40;;;;;;4831124;29;20022;-92
2023/01/10 12:50:24;;;;;;;0.30;0.30;;;14.20;63.00;;;;;;4882232;29;20076;-94
2023/01/10 12:53:08;;;;;;;0.30;0.30;;;14.20;62.50;;;;;;4868016;29;20033;-96
2023/01/10 12:55:39;;;;;;;0.40;0.40;;;14.40;62.20;;;;;;4870507;29;20119;-93
2023/01/10 12:58:11;;;;;;;0.35;0.35;;;14.50;62.50;;;;;;4884090;29;20048;-96
2023/01/10 13:00:41;;;;;;;0.25;0.25;;;14.60;61.60;;;;;;4884187;29;20489;-96
2023/01/10 13:03:16;;;;;;;0.20;0.20;;;14.70;61.60;;;;;;4883794;29;20029;-96
2023/01/10 13:05:47;;;;;;;0.30;0.30;;;14.50;62.60;;;;;;4891967;29;20025;-96
2023/01/10 13:08:16;;;;;;;0.30;0.30;;;14.10;62.60;;;;;;4891943;29;20053;-94
2023/01/10 13:10:45;;;;;;;0.32;0.32;;;14.10;62.70;;;;;;4890963;29;20064;-91
2023/01/10 13:13:36;;;;;;;0.30;0.30;;;13.90;63.20;;;;;;4891019;29;20025;-96
2023/01/10 13:16:32;;;;;;;0.32;0.32;;;13.80;63.30;;;;;;4887000;29;20481;-92
2023/01/10 13:19:23;;;;;;;0.30;0.30;;;14.00;62.70;;;;;;4872707;29;20021;-88
2023/01/10 13:21:51;;;;;;;0.40;0.40;;;14.20;62.00;;;;;;4889219;29;20037;-94
2023/01/10 13:24:25;;;;;;;0.20;0.20;;;14.30;62.40;;;;;;4886768;29;20033;-92
2023/01/10 13:26:54;;;;;;;0.40;0.40;;;14.60;61.30;;;;;;4889496;29;20077;-94
2023/01/10 13:29:25;;;;;;;0.30;0.30;;;14.50;61.50;;;;;;4890858;29;20025;-95
2023/01/10 13:31:56;;;;;;;0.30;0.30;;;14.40;61.50;;;;;;4888344;29;20112;-94
2023/01/10 13:34:24;;;;;;;;;;;14.00;62.10;;;;;;4887867;29;20036;-87
2023/01/10 13:36:59;;;;;;;0.30;0.30;;;14.00;62.60;;;;;;4888689;29;19915;-92
2023/01/10 13:39:39;;;;;;;0.40;0.40;;;14.00;63.00;;;;;;4889174;29;20064;-93
2023/01/10 13:45:28;;;;;;;0.30;0.30;;;14.10;62.60;;;;;;4900928;29;20072;-84
2023/01/10 13:47:54;;;;;;;0.40;0.40;;;14.20;62.60;;;;;;4899748;29;20028;-83
2023/01/10 13:50:41;;;;;;;0.30;0.30;;;14.00;62.80;;;;;;4884991;29;20059;-82
2023/01/10 13:53:07;;;;;;;0.20;0.20;;;13.90;63.50;;;;;;4889468;29;20027;-93
2023/01/10 13:55:41;;;;;;;0.20;0.20;;;14.00;63.20;;;;;;4888290;29;20035;-82
2023/01/10 13:58:13;;;;;;;0.30;0.30;;;14.10;62.60;;;;;;4883965;29;20084;-87
2023/01/10 14:03:51;;;;;;;0.40;0.40;;;14.20;62.50;;;;;;4882994;29;20032;-84
2023/01/10 14:06:28;;;;;;;0.40;0.40;;;14.10;63.10;;;;;;4867861;29;20123;-85
2023/01/10 14:09:22;;;;;;;0.40;0.40;;;14.30;62.30;;;;;;4867772;29;20085;-86
2023/01/10 14:12:06;;;;;;;0.30;0.30;;;14.00;63.00;;;;;;4870489;29;20045;-91
2023/01/10 14:15:04;;;;;;;0.20;0.20;;;14.20;62.70;;;;;;4884903;29;20041;-90
2023/01/10 14:17:36;;;;;;;0.30;0.30;;;13.80;63.20;;;;;;4903920;29;20037;-88
2023/01/10 14:20:23;;;;;;;0.40;0.40;;;14.10;62.80;;;;;;4884016;29;20024;-83
2023/01/10 14:23:33;;;;;;;0.30;0.30;;;14.00;62.40;;;;;;4853960;29;20048;-96
2023/01/10 14:26:49;;;;;;;0.38;0.38;;;14.20;62.80;;;;;;4886870;29;20021;-83
2023/01/10 14:29:36;;;;;;;0.30;0.30;;;13.80;63.50;;;;;;4884346;29;20040;-82
2023/01/10 14:32:29;;;;;;;0.28;0.28;;;13.70;63.80;;;;;;4882676;29;20036;-93